Time;durP1;ratioP1;P1;durP2;ratioP2;P2;SDS_P1;SDS_P2;PMS_P1;PMS_P2;Temp;Humidity;BMP_temperature;BMP_pressure;BME280_temperature;BME280_humidity;BME280_pressure;Samples;Min_cycle;Max_cycle;Signal;HPM_P1;HPM_P2
2023/07/03 00:00:42;;;;;;;12.13;5.18;;;;;;;25.82;100.00;100422.47;21190504;27;20401;-77
2023/07/03 00:11:06;;;;;;;9.73;4.63;;;;;;;25.77;100.00;100443.50;21239454;27;20039;-77
2023/07/03 00:21:29;;;;;;;9.55;5.43;;;;;;;25.47;100.00;100436.94;21156804;27;20191;-77
2023/07/03 00:31:53;;;;;;;12.65;6.25;;;;;;;25.16;99.88;100445.69;21165420;27;20434;-76
2023/07/03 00:42:16;;;;;;;12.48;6.82;;;;;;;24.38;96.83;100462.91;21173952;27;20190;-76
2023/07/03 00:52:41;;;;;;;12.48;6.30;;;;;;;24.38;97.53;100460.22;21185953;27;20051;-76
2023/07/03 01:03:12;;;;;;;14.65;6.53;;;;;;;24.47;97.70;100465.19;21173953;27;20054;-76
2023/07/03 01:13:37;;;;;;;11.57;6.00;;;;;;;24.56;100.00;100453.94;21151542;27;20051;-76
2023/07/03 01:24:05;;;;;;;12.32;6.35;;;;;;;24.61;100.00;100461.84;21179110;27;20116;-76
2023/07/03 01:34:30;;;;;;;;;;;;;;;24.10;100.00;100454.28;21156077;28;20096;-77
2023/07/03 01:44:52;;;;;;;12.63;6.90;;;;;;;24.15;100.00;100454.97;21191570;28;19931;-77
2023/07/03 01:55:25;;;;;;;12.95;6.97;;;;;;;23.97;100.00;100463.84;21161053;28;20036;-77
2023/07/03 02:05:50;;;;;;;13.75;7.50;;;;;;;24.12;100.00;100468.56;21159354;28;20130;-76
2023/07/03 02:16:15;;;;;;;13.10;7.47;;;;;;;24.04;100.00;100468.91;21183724;28;20058;-77
2023/07/03 02:26:38;;;;;;;16.00;7.40;;;;;;;24.00;100.00;100471.81;21137731;28;20379;-77
2023/07/03 02:37:03;;;;;;;12.98;7.55;;;;;;;23.94;100.00;100474.78;21144936;27;20047;-77
2023/07/03 02:47:25;;;;;;;15.95;8.05;;;;;;;23.89;100.00;100471.44;21173481;27;20038;-77
2023/07/03 02:57:51;;;;;;;16.20;8.25;;;;;;;23.99;100.00;100467.38;21182357;27;20047;-77
2023/07/03 03:08:14;;;;;;;13.73;8.98;;;;;;;23.84;100.00;100485.97;21171924;27;20603;-77
2023/07/03 03:18:38;;;;;;;18.50;9.18;;;;;;;23.84;100.00;100477.00;21186275;27;20491;-77
2023/07/03 03:29:01;;;;;;;15.57;8.82;;;;;;;23.91;100.00;100483.00;21189136;27;20053;-77
2023/07/03 03:39:07;;;;;;;18.42;8.40;;;;;;;24.02;100.00;100488.81;21210232;27;20081;-77
2023/07/03 03:49:33;;;;;;;16.30;9.05;;;;;;;24.16;100.00;100492.63;21156474;27;20440;-77
2023/07/03 03:59:57;;;;;;;14.82;7.07;;;;;;;24.55;100.00;100495.38;21174821;27;20483;-77
2023/07/03 04:10:20;;;;;;;12.07;6.95;;;;;;;24.83;100.00;100497.66;21187548;27;20380;-77
2023/07/03 04:20:45;;;;;;;13.60;6.82;;;;;;;25.30;100.00;100484.59;21183275;27;20169;-77
2023/07/03 04:30:48;;;;;;;17.70;7.20;;;;;;;25.80;100.00;100492.00;21191631;27;20556;-77
2023/07/03 04:41:12;;;;;;;14.43;7.47;;;;;;;26.36;100.00;100488.19;21154930;27;20048;-78
2023/07/03 04:51:35;;;;;;;13.05;6.15;;;;;;;27.20;100.00;100500.66;21152105;27;20039;-78
2023/07/03 05:01:59;;;;;;;15.52;6.47;;;;;;;27.80;100.00;100498.06;21171550;27;20101;-77
2023/07/03 05:12:22;;;;;;;12.05;6.40;;;;;;;28.37;100.00;100499.06;21164420;27;20070;-78
2023/07/03 05:22:47;;;;;;;14.13;5.82;;;;;;;28.78;100.00;100497.38;21171874;27;20062;-80
2023/07/03 05:32:58;;;;;;;13.98;5.72;;;;;;;29.48;100.00;100509.09;21206142;28;20047;-80
2023/07/03 05:43:23;;;;;;;18.13;6.57;;;;;;;30.07;100.00;100515.06;21172909;28;20047;-79
2023/07/03 05:53:45;;;;;;;14.52;6.13;;;;;;;30.59;100.00;100511.47;21156767;28;20047;-79
2023/07/03 06:04:11;;;;;;;13.60;5.85;;;;;;;31.36;100.00;100500.28;21178857;28;20138;-79
2023/07/03 06:14:34;;;;;;;10.57;5.68;;;;;;;31.92;100.00;100512.38;21177406;27;20082;-79
2023/07/03 06:24:59;;;;;;;13.75;6.82;;;;;;;32.88;99.42;100499.31;21221873;27;20096;-79
2023/07/03 06:35:21;;;;;;;11.43;5.77;;;;;;;33.87;88.57;100511.06;21212531;27;20063;-80
2023/07/03 06:45:46;;;;;;;11.57;6.25;;;;;;;34.38;72.53;100515.81;21177509;27;20051;-80
2023/07/03 06:56:09;;;;;;;11.47;5.57;;;;;;;34.16;69.09;100510.41;21168014;27;20578;-79
2023/07/03 07:06:33;;;;;;;12.25;6.18;;;;;;;34.02;63.09;100522.56;21194834;27;20047;-77
2023/07/03 07:16:56;;;;;;;12.15;6.45;;;;;;;34.33;55.90;100532.66;21164370;27;20082;-78
2023/07/03 07:27:00;;;;;;;9.18;5.68;;;;;;;34.53;53.71;100549.25;21193746;27;20047;-78
2023/07/03 07:37:23;;;;;;;11.80;5.35;;;;;;;34.30;54.90;100549.38;21155740;27;20376;-78
2023/07/03 07:47:47;;;;;;;10.68;5.00;;;;;;;34.16;65.37;100546.06;21184491;27;20046;-82
2023/07/03 07:58:10;;;;;;;11.93;6.70;;;;;;;34.06;45.18;100554.22;21202025;27;20503;-82
2023/07/03 08:08:36;;;;;;;10.98;5.90;;;;;;;34.39;50.52;100565.03;21209077;27;20050;-83
2023/07/03 08:18:59;;;;;;;10.75;5.40;;;;;;;34.58;51.03;100561.56;21141192;27;20086;-83
2023/07/03 08:29:23;;;;;;;10.75;5.50;;;;;;;34.82;48.98;100585.09;21186513;27;20071;-83
2023/07/03 08:39:45;;;;;;;10.77;5.40;;;;;;;34.63;47.27;100581.22;21207851;27;20135;-82
2023/07/03 08:50:13;;;;;;;11.60;6.00;;;;;;;34.46;48.44;100584.56;21184706;27;20446;-83
2023/07/03 09:00:44;;;;;;;13.63;5.97;;;;;;;34.75;47.90;100591.13;21167653;27;20051;-83
2023/07/03 09:11:09;;;;;;;12.02;5.75;;;;;;;35.23;48.02;100598.78;21157921;27;20051;-83
2023/07/03 09:21:32;;;;;;;;;;;;;;;35.35;46.06;100603.16;21162778;27;20051;-81
2023/07/03 09:31:56;;;;;;;10.05;5.30;;;;;;;35.71;46.91;100609.94;21147419;27;20407;-80
2023/07/03 09:42:19;;;;;;;11.47;6.27;;;;;;;35.67;47.25;100615.81;21149387;27;20051;-81
2023/07/03 09:52:49;;;;;;;10.75;5.80;;;;;;;35.65;49.97;100626.09;21194072;27;20039;-85
2023/07/03 10:03:11;;;;;;;14.23;5.95;;;;;;;35.93;49.35;100637.19;21207420;27;20368;-86
2023/07/03 10:13:44;;;;;;;11.95;5.35;;;;;;;35.74;49.20;100625.28;21201117;27;20051;-84
2023/07/03 10:24:10;;;;;;;15.35;6.35;;;;;;;34.83;54.26;100625.25;21200605;27;20125;-82
2023/07/03 10:34:40;;;;;;;15.02;6.47;;;;;;;35.26;54.38;100625.94;21215579;27;20054;-84
2023/07/03 10:45:07;;;;;;;14.40;5.97;;;;;;;35.49;52.99;100638.50;21176594;27;20054;-85
2023/07/03 10:55:41;;;;;;;13.43;6.32;;;;;;;35.90;54.51;100631.13;21225783;27;20043;-80
2023/07/03 11:06:08;;;;;;;14.45;5.88;;;;;;;35.75;56.30;100627.91;21195557;27;20047;-83
2023/07/03 11:16:42;;;;;;;12.00;5.15;;;;;;;36.56;55.64;100629.41;21171190;27;20048;-79
2023/07/03 11:27:09;;;;;;;12.32;5.70;;;;;;;36.46;55.33;100627.69;21122865;27;20128;-83
2023/07/03 11:37:45;;;;;;;14.25;5.70;;;;;;;35.27;62.22;100626.81;21142873;27;20043;-82
2023/07/03 11:48:19;;;;;;;14.88;5.53;;;;;;;34.88;70.28;100622.97;21129093;27;20106;-84
2023/07/03 11:58:45;;;;;;;14.27;5.78;;;;;;;35.24;70.84;100635.34;21121360;27;20100;-85
2023/07/03 12:09:29;;;;;;;18.73;5.60;;;;;;;34.81;79.45;100632.75;21119439;28;20491;-84
2023/07/03 12:19:59;;;;;;;12.70;6.38;;;;;;;34.52;79.71;100635.28;21213341;27;20137;-82
2023/07/03 12:30:02;;;;;;;13.95;6.90;;;;;;;34.39;84.06;100644.56;21232591;27;20054;-81
2023/07/03 12:40:27;;;;;;;14.88;6.28;;;;;;;35.05;83.88;100652.56;21219722;27;20047;-85
2023/07/03 12:50:52;;;;;;;16.23;5.93;;;;;;;34.89;86.77;100654.91;21210092;27;20043;-82
2023/07/03 13:01:20;;;;;;;16.33;5.87;;;;;;;33.83;93.92;100649.31;21185085;27;20058;-84
2023/07/03 13:11:44;;;;;;;15.77;6.28;;;;;;;33.70;94.86;100650.44;21235735;27;20399;-85
2023/07/03 13:22:18;;;;;;;19.83;7.45;;;;;;;34.32;90.45;100634.25;21171005;27;20495;-84
2023/07/03 13:32:52;;;;;;;21.20;6.63;;;;;;;34.62;87.09;100648.06;21180730;27;20539;-84
2023/07/03 13:43:21;;;;;;;16.08;6.50;;;;;;;34.25;86.55;100633.03;21206249;27;20085;-84
2023/07/03 13:53:44;;;;;;;18.35;6.15;;;;;;;34.11;86.84;100631.44;21186533;27;20747;-83
2023/07/03 14:04:09;;;;;;;15.10;6.00;;;;;;;34.28;85.90;100632.75;21223030;27;20239;-83
2023/07/03 14:14:31;;;;;;;16.65;6.55;;;;;;;34.37;84.37;100626.50;21211937;27;20058;-86
2023/07/03 14:24:57;;;;;;;18.60;6.80;;;;;;;34.06;85.06;100619.13;21202940;27;20051;-83
2023/07/03 14:35:19;;;;;;;15.07;6.17;;;;;;;33.98;86.12;100626.13;21196191;27;20560;-83
2023/07/03 14:45:43;;;;;;;13.65;6.38;;;;;;;34.98;79.85;100627.53;21229771;27;20043;-83
2023/07/03 14:56:06;;;;;;;11.77;6.18;;;;;;;34.78;75.51;100622.94;21210920;27;20039;-85
2023/07/03 15:06:31;;;;;;;16.55;6.25;;;;;;;34.52;74.10;100625.19;21234235;27;20050;-85
2023/07/03 15:16:54;;;;;;;13.43;6.40;;;;;;;33.80;73.74;100626.78;21189759;27;20090;-85
2023/07/03 15:27:18;;;;;;;18.63;6.85;;;;;;;33.26;75.42;100630.31;21236507;27;20108;-85
2023/07/03 15:37:43;;;;;;;19.20;7.13;;;;;;;32.90;77.24;100630.47;21212959;27;20125;-84
2023/07/03 15:48:08;;;;;;;17.02;7.20;;;;;;;32.19;81.45;100640.56;21265281;27;20613;-84
2023/07/03 15:58:34;;;;;;;15.90;7.30;;;;;;;31.56;89.03;100652.53;21222877;27;20054;-84
2023/07/03 16:08:59;;;;;;;19.38;7.43;;;;;;;31.26;94.74;100643.84;21218395;27;20082;-85
2023/07/03 16:19:21;;;;;;;17.63;8.00;;;;;;;30.86;100.00;100659.41;21205310;27;20043;-84
2023/07/03 16:29:47;;;;;;;16.40;7.43;;;;;;;30.04;100.00;100670.53;21230048;27;20054;-79
2023/07/03 16:40:10;;;;;;;16.65;8.20;;;;;;;29.30;100.00;100666.22;21195178;27;20433;-79
2023/07/03 16:50:34;;;;;;;17.83;9.18;;;;;;;29.03;100.00;100677.94;21232390;27;20039;-78
2023/07/03 17:00:58;;;;;;;18.75;9.40;;;;;;;28.63;100.00;100680.34;21184065;27;20146;-79
2023/07/03 17:11:22;;;;;;;20.77;9.57;;;;;;;28.48;100.00;100690.34;21185203;27;20695;-78
2023/07/03 17:21:45;;;;;;;21.88;9.80;;;;;;;28.52;100.00;100699.16;21206943;27;20047;-79
2023/07/03 17:32:13;;;;;;;16.52;9.05;;;;;;;28.35;100.00;100711.03;21201005;27;20122;-79
2023/07/03 17:42:35;;;;;;;18.13;9.55;;;;;;;28.25;100.00;100715.25;21213365;27;20613;-78
2023/07/03 17:53:00;;;;;;;18.30;10.05;;;;;;;28.01;100.00;100725.66;21205617;27;20054;-79
2023/07/03 18:03:24;;;;;;;16.35;10.63;;;;;;;27.88;100.00;100740.00;21236359;27;20043;-81
2023/07/03 18:13:49;;;;;;;17.27;10.65;;;;;;;27.68;100.00;100742.00;21219572;27;20809;-81
2023/07/03 18:24:12;;;;;;;17.75;10.18;;;;;;;27.53;100.00;100750.97;21218362;27;20415;-80
2023/07/03 18:34:36;;;;;;;16.80;10.20;;;;;;;27.36;100.00;100756.44;21235472;27;20624;-82
2023/07/03 18:44:58;;;;;;;16.52;9.75;;;;;;;27.25;100.00;100765.13;21208008;27;20552;-83
2023/07/03 18:55:22;;;;;;;23.13;10.18;;;;;;;26.93;100.00;100769.53;21219007;27;20051;-80
2023/07/03 19:05:51;;;;;;;16.50;10.10;;;;;;;26.82;100.00;100771.91;21204993;27;20043;-79
2023/07/03 19:16:14;;;;;;;20.33;9.98;;;;;;;26.66;100.00;100789.88;21211214;27;20047;-80
2023/07/03 19:26:37;;;;;;;20.70;11.15;;;;;;;26.55;100.00;100785.00;21215615;27;20049;-79
2023/07/03 19:37:02;;;;;;;19.52;11.63;;;;;;;26.38;100.00;100798.50;21212321;27;20054;-82
2023/07/03 19:47:24;;;;;;;19.58;12.00;;;;;;;26.31;100.00;100810.59;21228864;27;20146;-84
2023/07/03 19:57:30;;;;;;;18.38;11.40;;;;;;;26.25;100.00;100810.00;21227534;27;20053;-81
2023/07/03 20:07:52;;;;;;;16.65;11.23;;;;;;;26.16;100.00;100820.28;21220413;27;20062;-82
2023/07/03 20:18:17;;;;;;;21.63;12.35;;;;;;;26.00;100.00;100805.72;21224372;27;20522;-81
2023/07/03 20:28:39;;;;;;;16.90;11.13;;;;;;;25.91;100.00;100819.69;21222603;27;20502;-82
2023/07/03 20:39:04;;;;;;;23.60;12.02;;;;;;;25.98;100.00;100823.00;21216217;27;20586;-82
2023/07/03 20:49:28;;;;;;;18.55;10.95;;;;;;;25.96;100.00;100820.34;21218510;27;20251;-83
2023/07/03 20:59:52;;;;;;;19.10;10.60;;;;;;;25.91;100.00;100827.81;21199146;27;20047;-83
2023/07/03 21:10:16;;;;;;;18.90;10.85;;;;;;;25.84;100.00;100831.75;21204627;27;20048;-82
2023/07/03 21:20:40;;;;;;;17.80;11.48;;;;;;;25.86;100.00;100823.56;21225491;27;20093;-82
2023/07/03 21:31:02;;;;;;;21.50;11.00;;;;;;;25.87;100.00;100823.47;21218399;27;20039;-83
2023/07/03 21:41:29;;;;;;;20.58;12.23;;;;;;;25.91;100.00;100830.53;21187357;27;20181;-81
2023/07/03 21:51:53;;;;;;;21.42;12.32;;;;;;;25.79;100.00;100833.81;21174289;27;20043;-83
2023/07/03 22:02:17;;;;;;;19.98;12.13;;;;;;;25.69;100.00;100827.94;21266027;27;20046;-82
2023/07/03 22:12:40;;;;;;;23.38;12.15;;;;;;;25.58;100.00;100827.53;21245580;27;20043;-83
2023/07/03 22:23:04;;;;;;;17.90;12.00;;;;;;;25.65;100.00;100828.16;21222319;27;20043;-83
2023/07/03 22:33:28;;;;;;;20.38;11.68;;;;;;;25.72;100.00;100832.31;21230093;27;20104;-83
2023/07/03 22:43:52;;;;;;;21.63;11.77;;;;;;;25.78;100.00;100822.09;21207251;27;20051;-83
2023/07/03 22:54:16;;;;;;;22.02;11.45;;;;;;;25.77;100.00;100833.88;21234973;27;21449;-81
2023/07/03 23:04:40;;;;;;;19.63;10.18;;;;;;;25.83;100.00;100821.00;21232982;27;20058;-83
2023/07/03 23:15:03;;;;;;;21.98;12.07;;;;;;;25.74;100.00;100825.00;21208109;27;20044;-82
2023/07/03 23:25:27;;;;;;;23.33;11.43;;;;;;;25.65;100.00;100825.44;21199273;27;20046;-82
2023/07/03 23:35:49;;;;;;;19.13;11.35;;;;;;;25.51;100.00;100812.50;21171294;27;20047;-82
2023/07/03 23:46:14;;;;;;;18.77;11.73;;;;;;;25.62;100.00;100809.34;21146152;28;20039;-82
2023/07/03 23:56:37;;;;;;;18.25;11.18;;;;;;;25.59;100.00;100804.97;21143056;27;20082;-81
